createdAt,value
2022-12-18T00:00:05.271Z,96.05
2022-12-18T00:02:57.543Z,95.81
2022-12-18T00:05:51.019Z,96.49
2022-12-18T00:08:37.538Z,96.17
2022-12-18T00:11:25.093Z,96.08
2022-12-18T00:14:13.032Z,96.21
2022-12-18T00:16:58.479Z,96.10
2022-12-18T00:19:44.877Z,96.25
2022-12-18T00:22:30.333Z,95.98
2022-12-18T00:25:16.249Z,95.43
2022-12-18T00:28:02.130Z,95.62
2022-12-18T00:30:48.034Z,96.12
2022-12-18T00:33:33.716Z,95.99
2022-12-18T00:36:21.977Z,96.76
2022-12-18T00:39:07.753Z,96.60
2022-12-18T00:41:53.289Z,96.57
2022-12-18T00:44:39.262Z,95.99
2022-12-18T00:47:24.891Z,95.88
2022-12-18T00:50:10.754Z,96.11
2022-12-18T01:00:17.964Z,95.96
2022-12-18T01:03:14.339Z,95.67
2022-12-18T01:06:12.835Z,95.75
2022-12-18T01:08:58.743Z,95.72
2022-12-18T01:11:44.528Z,95.88
2022-12-18T01:14:30.286Z,95.79
2022-12-18T01:17:15.852Z,96.12
2022-12-18T01:20:02.095Z,96.22
2022-12-18T01:22:47.245Z,96.12
2022-12-18T01:25:34.345Z,95.39
2022-12-18T01:28:20.072Z,95.19
2022-12-18T01:31:27.485Z,95.14
2022-12-18T01:34:13.562Z,94.75
2022-12-18T01:36:59.000Z,95.33
2022-12-18T01:39:45.166Z,95.43
2022-12-18T01:42:30.173Z,95.31
2022-12-18T01:45:15.499Z,95.50
2022-12-18T01:48:04.310Z,95.30
2022-12-18T01:50:49.566Z,95.33
2022-12-18T01:53:37.132Z,95.30
2022-12-18T01:56:23.284Z,95.49
2022-12-18T01:59:49.464Z,95.36
2022-12-18T02:02:45.506Z,95.57
2022-12-18T02:06:06.569Z,95.71
2022-12-18T02:09:07.860Z,95.19
2022-12-18T02:11:53.357Z,94.96
2022-12-18T02:14:53.339Z,94.97
2022-12-18T02:17:55.463Z,95.06
2022-12-18T02:20:48.685Z,95.03
2022-12-18T02:23:52.824Z,95.04
2022-12-18T02:26:47.836Z,94.86
2022-12-18T02:29:58.478Z,94.58
2022-12-18T02:32:51.218Z,94.66
2022-12-18T02:35:39.684Z,95.26
2022-12-18T02:38:26.718Z,95.26
2022-12-18T02:41:14.084Z,95.27
2022-12-18T02:44:09.947Z,95.44
2022-12-18T02:46:55.520Z,95.55
2022-12-18T02:50:06.452Z,95.80
2022-12-18T02:53:20.184Z,95.92
2022-12-18T02:56:16.520Z,96.21
2022-12-18T02:59:14.303Z,96.24
2022-12-18T03:02:24.850Z,96.28
2022-12-18T03:05:42.108Z,95.92
2022-12-18T03:08:32.794Z,95.19
2022-12-18T03:11:18.178Z,94.84
2022-12-18T03:14:06.627Z,94.83
2022-12-18T03:16:56.168Z,94.88
2022-12-18T03:19:43.936Z,95.02
2022-12-18T03:22:33.072Z,95.06
2022-12-18T03:25:20.132Z,94.46
2022-12-18T03:28:09.484Z,94.51
2022-12-18T03:30:59.492Z,94.71
2022-12-18T03:33:53.332Z,95.03
2022-12-18T03:36:38.491Z,94.77
2022-12-18T03:39:23.780Z,94.98
2022-12-18T03:42:21.624Z,94.42
2022-12-18T03:45:35.296Z,94.76
2022-12-18T03:48:30.468Z,95.33
2022-12-18T03:51:26.402Z,95.89
2022-12-18T03:54:13.224Z,95.82
2022-12-18T03:57:05.659Z,95.65
2022-12-18T03:59:57.091Z,95.50
2022-12-18T04:02:47.278Z,95.60
2022-12-18T04:05:35.452Z,95.33
2022-12-18T04:08:21.652Z,95.60
2022-12-18T04:11:07.998Z,95.96
2022-12-18T04:13:58.248Z,95.89
2022-12-18T04:16:43.952Z,95.73
2022-12-18T04:19:29.388Z,95.29
2022-12-18T04:22:14.736Z,95.52
2022-12-18T04:25:00.163Z,95.25
2022-12-18T04:27:45.777Z,95.08
2022-12-18T04:30:31.015Z,95.33
2022-12-18T04:33:19.632Z,95.29
2022-12-18T04:36:05.963Z,95.35
2022-12-18T04:38:51.393Z,95.06
2022-12-18T04:41:36.861Z,95.18
2022-12-18T04:44:22.065Z,95.61
2022-12-18T04:47:07.353Z,95.54
2022-12-18T04:49:52.669Z,95.73
2022-12-18T04:52:37.838Z,96.27
2022-12-18T04:55:26.568Z,96.04
2022-12-18T04:58:11.779Z,96.55
2022-12-18T05:00:57.052Z,96.40
2022-12-18T05:03:42.708Z,96.73
2022-12-18T05:06:28.562Z,97.71
2022-12-18T05:09:14.063Z,98.88
2022-12-18T05:11:59.689Z,99.46
2022-12-18T05:14:44.955Z,99.96
2022-12-18T05:17:30.244Z,100.00
2022-12-18T05:20:15.465Z,100.00
2022-12-18T05:23:00.652Z,100.00
2022-12-18T05:25:55.140Z,100.00
2022-12-18T05:28:40.733Z,100.00
2022-12-18T05:31:25.997Z,100.00
2022-12-18T05:34:11.199Z,100.00
2022-12-18T05:36:56.796Z,100.00
2022-12-18T05:39:43.848Z,100.00
2022-12-18T05:42:29.184Z,100.00
2022-12-18T05:45:14.395Z,100.00
2022-12-18T05:47:59.657Z,100.00
2022-12-18T05:50:46.235Z,100.00
2022-12-18T05:53:31.665Z,100.00
2022-12-18T05:56:20.217Z,100.00
2022-12-18T05:59:05.520Z,100.00
2022-12-18T06:01:50.935Z,100.00
2022-12-18T06:04:36.130Z,100.00
2022-12-18T06:07:21.522Z,100.00
2022-12-18T06:10:07.264Z,100.00
2022-12-18T06:12:52.314Z,100.00
2022-12-18T06:15:38.565Z,100.00
2022-12-18T06:18:24.123Z,100.00
2022-12-18T06:21:09.244Z,100.00
2022-12-18T06:23:54.746Z,100.00
2022-12-18T06:26:40.646Z,100.00
2022-12-18T06:29:26.634Z,100.00
2022-12-18T06:32:15.989Z,100.00
2022-12-18T06:35:04.825Z,100.00
2022-12-18T06:37:50.384Z,100.00
2022-12-18T06:40:38.964Z,100.00
2022-12-18T06:43:24.630Z,100.00
2022-12-18T06:46:11.318Z,100.00
2022-12-18T06:48:58.205Z,100.00
2022-12-18T06:51:43.567Z,100.00
2022-12-18T06:54:29.007Z,100.00
2022-12-18T06:57:15.015Z,100.00
2022-12-18T07:00:00.941Z,100.00
2022-12-18T07:02:46.326Z,100.00
2022-12-18T07:05:31.876Z,100.00
2022-12-18T07:08:17.434Z,100.00
2022-12-18T07:11:05.236Z,100.00
2022-12-18T07:13:51.031Z,100.00
2022-12-18T07:16:36.201Z,100.00
2022-12-18T07:19:25.139Z,100.00
2022-12-18T07:22:10.564Z,100.00
2022-12-18T07:24:55.910Z,100.00
2022-12-18T07:27:41.453Z,100.00
2022-12-18T07:30:26.644Z,100.00
2022-12-18T07:33:12.009Z,100.00
2022-12-18T07:35:57.160Z,100.00
2022-12-18T07:38:43.529Z,100.00
2022-12-18T07:41:29.149Z,100.00
2022-12-18T07:44:14.788Z,100.00
2022-12-18T07:47:00.397Z,100.00
2022-12-18T07:52:50.515Z,100.00
2022-12-18T07:56:17.812Z,100.00
2022-12-18T07:58:49.512Z,100.00
2022-12-18T08:01:35.127Z,100.00
2022-12-18T08:04:20.957Z,100.00
2022-12-18T08:07:06.532Z,100.00
2022-12-18T08:09:51.759Z,100.00
2022-12-18T08:12:37.156Z,100.00
2022-12-18T08:15:22.367Z,100.00
2022-12-18T08:21:15.612Z,100.00
2022-12-18T08:24:03.316Z,100.00
2022-12-18T08:29:47.716Z,100.00
2022-12-18T08:32:33.597Z,100.00
2022-12-18T08:35:18.917Z,100.00
2022-12-18T08:38:04.924Z,100.00
2022-12-18T08:40:50.510Z,100.00
2022-12-18T08:43:36.042Z,100.00
2022-12-18T08:46:32.680Z,100.00
2022-12-18T08:49:18.038Z,100.00
2022-12-18T08:52:04.037Z,100.00
2022-12-18T08:57:57.069Z,100.00
2022-12-18T09:00:44.549Z,100.00
2022-12-18T09:03:31.219Z,100.00
2022-12-18T09:09:19.358Z,100.00
2022-12-18T09:15:08.757Z,100.00
2022-12-18T09:24:27.646Z,99.79
2022-12-18T09:27:15.640Z,100.00
2022-12-18T09:30:01.408Z,99.87
2022-12-18T09:35:47.418Z,99.67
2022-12-18T09:38:33.136Z,99.37
2022-12-18T09:41:34.863Z,99.01
2022-12-18T09:44:52.902Z,98.67
2022-12-18T09:47:40.262Z,98.36
2022-12-18T09:50:33.020Z,98.18
2022-12-18T09:53:26.145Z,98.20
2022-12-18T09:56:19.903Z,97.69
2022-12-18T09:59:06.496Z,97.22
2022-12-18T10:01:52.532Z,96.72
2022-12-18T10:04:38.284Z,96.30
2022-12-18T10:07:49.064Z,95.70
2022-12-18T10:11:04.424Z,95.37
2022-12-18T10:13:57.127Z,94.60
2022-12-18T10:16:57.489Z,93.78
2022-12-18T10:19:48.455Z,92.96
2022-12-18T10:22:43.171Z,92.56
2022-12-18T10:26:05.092Z,91.64
2022-12-18T10:28:51.695Z,92.18
2022-12-18T10:31:38.750Z,91.43
2022-12-18T10:34:24.897Z,90.13
2022-12-18T10:37:18.024Z,89.87
2022-12-18T10:40:21.544Z,88.47
2022-12-18T10:43:16.175Z,87.51
2022-12-18T10:46:22.256Z,86.72
2022-12-18T10:49:20.505Z,86.92
2022-12-18T10:52:21.508Z,86.88
2022-12-18T10:55:18.541Z,86.64
2022-12-18T10:58:28.787Z,86.38
2022-12-18T11:01:49.817Z,86.26
2022-12-18T11:04:35.884Z,85.65
2022-12-18T11:07:21.624Z,85.42
2022-12-18T11:10:20.539Z,85.94
2022-12-18T11:13:21.656Z,85.45
2022-12-18T11:16:07.465Z,85.35
2022-12-18T11:18:53.139Z,85.00
2022-12-18T11:21:43.451Z,84.21
2022-12-18T11:24:34.653Z,83.72
2022-12-18T11:27:20.766Z,83.13
2022-12-18T11:30:15.461Z,82.48
2022-12-18T11:33:21.243Z,82.92
2022-12-18T11:36:11.381Z,82.43
2022-12-18T11:39:00.930Z,81.59
2022-12-18T11:42:22.633Z,81.73
2022-12-18T11:45:20.049Z,80.68
2022-12-18T11:48:28.636Z,80.09
2022-12-18T11:51:28.180Z,79.27
2022-12-18T11:54:15.134Z,79.17
2022-12-18T11:57:11.206Z,79.54
2022-12-18T12:00:11.815Z,79.06
2022-12-18T12:03:23.177Z,78.57
2022-12-18T12:06:09.030Z,78.22
2022-12-18T12:09:18.193Z,77.60
2022-12-18T12:12:32.931Z,77.18
2022-12-18T12:15:49.865Z,76.84
2022-12-18T12:19:02.793Z,76.51
2022-12-18T12:22:14.579Z,76.16
2022-12-18T12:25:21.419Z,76.42
2022-12-18T12:28:19.666Z,75.66
2022-12-18T12:31:24.562Z,75.52
2022-12-18T12:34:18.003Z,74.62
2022-12-18T12:37:23.993Z,74.98
2022-12-18T12:40:51.335Z,74.40
2022-12-18T12:43:43.331Z,73.81
2022-12-18T12:46:42.482Z,74.69
2022-12-18T12:49:37.544Z,73.61
2022-12-18T12:52:40.964Z,73.34
2022-12-18T12:55:29.244Z,73.27
2022-12-18T12:58:52.335Z,73.42
2022-12-18T13:01:58.347Z,73.02
2022-12-18T13:04:53.363Z,72.98
2022-12-18T13:07:51.160Z,73.19
2022-12-18T13:10:42.483Z,72.87
2022-12-18T13:13:54.805Z,72.99
2022-12-18T13:16:40.739Z,72.42
2022-12-18T13:19:27.727Z,72.47
2022-12-18T13:22:51.060Z,72.42
2022-12-18T13:25:38.938Z,72.15
2022-12-18T13:28:45.245Z,72.25
2022-12-18T13:31:40.656Z,71.89
2022-12-18T13:34:29.764Z,71.30
2022-12-18T13:37:43.729Z,71.25
2022-12-18T13:40:57.051Z,71.50
2022-12-18T13:43:47.495Z,70.65
2022-12-18T13:46:48.139Z,71.21
2022-12-18T13:49:44.524Z,71.21
2022-12-18T13:52:37.371Z,70.75
2022-12-18T13:55:23.859Z,70.81
2022-12-18T13:58:13.406Z,70.36
2022-12-18T14:01:04.985Z,69.78
2022-12-18T14:03:50.423Z,69.87
2022-12-18T14:06:36.904Z,69.98
2022-12-18T14:09:29.292Z,69.92
2022-12-18T14:12:22.859Z,69.99
2022-12-18T14:15:24.239Z,69.86
2022-12-18T14:46:35.743Z,68.98
2022-12-18T14:49:30.252Z,69.23
2022-12-18T14:52:29.042Z,69.41
2022-12-18T14:55:19.368Z,69.99
2022-12-18T14:58:05.846Z,69.36
2022-12-18T15:00:55.911Z,69.49
2022-12-18T15:03:44.977Z,69.62
2022-12-18T15:06:32.034Z,69.73
2022-12-18T15:09:26.450Z,70.11
2022-12-18T15:12:29.649Z,70.23
2022-12-18T15:15:33.977Z,70.37
2022-12-18T15:18:23.881Z,70.85
2022-12-18T15:21:19.585Z,70.88
2022-12-18T15:24:28.279Z,71.11
2022-12-18T15:27:49.515Z,71.14
2022-12-18T15:30:38.490Z,71.47
2022-12-18T15:33:31.586Z,71.56
2022-12-18T15:40:14.986Z,72.01
2022-12-18T15:46:34.618Z,71.66
2022-12-18T15:49:45.476Z,71.88
2022-12-18T15:53:03.892Z,71.51
2022-12-18T15:56:02.023Z,71.92
2022-12-18T15:59:14.556Z,72.05
2022-12-18T16:05:38.309Z,71.61
2022-12-18T16:08:25.905Z,71.23
2022-12-18T16:11:25.600Z,70.91
2022-12-18T16:18:02.841Z,70.78
2022-12-18T16:20:50.420Z,71.06
2022-12-18T16:23:49.012Z,70.77
2022-12-18T16:26:44.313Z,70.63
2022-12-18T16:29:30.664Z,70.88
2022-12-18T16:32:19.442Z,70.37
2022-12-18T16:35:05.617Z,70.30
2022-12-18T16:37:50.978Z,70.72
2022-12-18T16:40:36.900Z,70.55
2022-12-18T16:43:27.954Z,70.62
2022-12-18T16:46:16.878Z,70.80
2022-12-18T16:49:04.658Z,70.25
2022-12-18T16:51:50.177Z,70.61
2022-12-18T16:54:54.097Z,70.51
2022-12-18T16:57:40.485Z,70.97
2022-12-18T17:00:25.877Z,70.50
2022-12-18T17:03:11.438Z,70.83
2022-12-18T17:06:03.971Z,70.48
2022-12-18T17:08:55.897Z,70.65
2022-12-18T17:11:41.744Z,71.35
2022-12-18T17:14:27.565Z,70.50
2022-12-18T17:17:21.866Z,70.38
2022-12-18T17:20:09.223Z,70.40
2022-12-18T17:22:54.820Z,70.31
2022-12-18T17:25:41.755Z,70.49
2022-12-18T17:28:28.812Z,70.65
2022-12-18T17:31:17.574Z,71.11
2022-12-18T17:34:04.371Z,71.27
2022-12-18T17:36:53.437Z,71.08
2022-12-18T17:39:40.568Z,71.25
2022-12-18T17:42:26.445Z,70.91
2022-12-18T17:45:12.521Z,71.10
2022-12-18T17:48:01.771Z,70.86
2022-12-18T17:50:49.487Z,71.57
2022-12-18T17:53:37.609Z,71.46
2022-12-18T17:56:30.158Z,72.12
2022-12-18T17:59:17.503Z,72.09
2022-12-18T18:02:15.492Z,72.50
2022-12-18T18:05:07.792Z,72.80
2022-12-18T18:07:57.130Z,72.80
2022-12-18T18:10:42.788Z,73.08
2022-12-18T18:13:33.317Z,73.70
2022-12-18T18:16:22.425Z,73.85
2022-12-18T18:19:15.342Z,73.71
2022-12-18T18:22:01.287Z,73.74
2022-12-18T18:24:46.923Z,74.36
2022-12-18T18:27:38.235Z,74.10
2022-12-18T18:30:24.165Z,74.70
2022-12-18T18:33:11.972Z,74.94
2022-12-18T18:35:58.373Z,75.02
2022-12-18T18:38:48.199Z,75.80
2022-12-18T18:41:34.506Z,75.94
2022-12-18T18:44:21.933Z,76.20
2022-12-18T18:47:11.444Z,76.99
2022-12-18T18:49:59.171Z,77.15
2022-12-18T18:52:44.688Z,77.45
2022-12-18T18:55:33.706Z,77.71
2022-12-18T18:58:19.915Z,78.37
2022-12-18T19:01:09.680Z,78.82
2022-12-18T19:03:55.411Z,79.33
2022-12-18T19:06:40.763Z,79.56
2022-12-18T19:09:32.672Z,79.92
2022-12-18T19:12:28.034Z,79.90
2022-12-18T19:15:13.728Z,80.64
2022-12-18T19:18:00.225Z,80.70
2022-12-18T19:20:55.082Z,81.21
2022-12-18T19:23:41.375Z,81.29
2022-12-18T19:26:30.997Z,81.46
2022-12-18T19:29:19.970Z,81.63
2022-12-18T19:32:05.870Z,81.67
2022-12-18T19:35:11.726Z,81.74
2022-12-18T19:37:59.005Z,81.89
2022-12-18T19:40:45.014Z,81.88
2022-12-18T19:43:30.368Z,82.14
2022-12-18T19:46:23.009Z,82.26
2022-12-18T19:49:08.742Z,82.67
2022-12-18T19:51:56.725Z,82.90
2022-12-18T19:54:42.672Z,83.09
2022-12-18T19:57:29.755Z,82.80
2022-12-18T20:00:18.836Z,83.04
2022-12-18T20:03:16.018Z,83.30
2022-12-18T20:06:18.909Z,82.97
2022-12-18T20:09:06.539Z,83.30
2022-12-18T20:11:58.080Z,84.05
2022-12-18T20:14:55.948Z,83.80
2022-12-18T20:17:41.351Z,83.59
2022-12-18T20:20:27.064Z,83.68
2022-12-18T20:23:12.715Z,83.42
2022-12-18T20:26:00.321Z,84.19
2022-12-18T20:28:45.966Z,84.26
2022-12-18T20:31:34.740Z,84.12
2022-12-18T20:34:20.176Z,84.25
2022-12-18T20:37:05.878Z,84.21
2022-12-18T20:39:51.077Z,84.54
2022-12-18T20:42:37.585Z,84.90
2022-12-18T20:45:23.062Z,84.65
2022-12-18T20:48:08.342Z,84.49
2022-12-18T20:51:07.747Z,84.80
2022-12-18T20:54:08.010Z,84.92
2022-12-18T20:56:57.032Z,85.41
2022-12-18T20:59:47.984Z,85.50
2022-12-18T21:02:34.162Z,85.72
2022-12-18T21:05:19.502Z,85.96
2022-12-18T21:08:05.345Z,86.04
2022-12-18T21:10:50.804Z,85.93
2022-12-18T21:13:36.038Z,85.62
2022-12-18T21:16:21.291Z,85.98
2022-12-18T21:19:07.146Z,86.05
2022-12-18T21:21:54.274Z,86.55
2022-12-18T21:24:40.234Z,86.31
2022-12-18T21:27:28.158Z,86.04
2022-12-18T21:30:14.000Z,86.18
2022-12-18T21:33:03.674Z,86.10
2022-12-18T21:35:49.555Z,86.18
2022-12-18T21:38:39.202Z,86.25
2022-12-18T21:41:26.322Z,86.70
2022-12-18T21:44:15.262Z,86.29
2022-12-18T21:47:10.818Z,86.56
2022-12-18T21:50:06.639Z,86.27
2022-12-18T21:52:54.175Z,86.53
2022-12-18T21:55:39.986Z,86.72
2022-12-18T21:58:25.885Z,86.45
2022-12-18T22:01:11.201Z,86.47
2022-12-18T22:04:00.393Z,86.50
2022-12-18T22:06:48.984Z,86.16
2022-12-18T22:09:38.833Z,86.01
2022-12-18T22:12:26.960Z,85.93
2022-12-18T22:15:19.196Z,86.11
2022-12-18T22:18:10.013Z,85.79
2022-12-18T22:21:07.237Z,86.11
2022-12-18T22:24:03.868Z,86.41
2022-12-18T22:26:52.342Z,86.41
2022-12-18T22:29:41.817Z,86.66
2022-12-18T22:32:31.754Z,87.27
2022-12-18T22:35:24.669Z,87.99
2022-12-18T22:38:11.528Z,88.59
2022-12-18T22:41:00.096Z,89.88
2022-12-18T22:43:45.884Z,90.70
2022-12-18T22:46:37.671Z,91.56
2022-12-18T22:49:25.342Z,92.09
2022-12-18T22:52:10.648Z,92.74
2022-12-18T22:54:55.856Z,93.48
2022-12-18T22:57:46.502Z,93.92
2022-12-18T23:00:34.748Z,94.41
2022-12-18T23:03:19.933Z,94.97
2022-12-18T23:06:06.994Z,95.29
2022-12-18T23:08:56.826Z,95.60
2022-12-18T23:11:43.372Z,96.05
2022-12-18T23:14:31.565Z,96.56
2022-12-18T23:17:16.702Z,97.04
2022-12-18T23:20:02.080Z,97.00
2022-12-18T23:22:47.291Z,97.74
2022-12-18T23:25:32.899Z,98.35
2022-12-18T23:28:18.258Z,98.47
2022-12-18T23:31:28.108Z,98.90
2022-12-18T23:34:14.618Z,99.47
2022-12-18T23:37:00.253Z,99.98
2022-12-18T23:39:45.634Z,100.00
2022-12-18T23:42:31.069Z,100.00
2022-12-18T23:45:17.923Z,100.00
2022-12-18T23:48:03.926Z,100.00
2022-12-18T23:50:49.407Z,100.00
2022-12-18T23:53:35.779Z,100.00
2022-12-18T23:56:22.618Z,100.00
2022-12-18T23:59:08.015Z,100.00
